Time;durP1;ratioP1;P1;durP2;ratioP2;P2;SDS_P1;SDS_P2;PMS_P1;PMS_P2;Temp;Humidity;BMP_temperature;BMP_pressure;BME280_temperature;BME280_humidity;BME280_pressure;Samples;Min_cycle;Max_cycle;Signal;HPM_P1;HPM_P2
2022/01/16 00:02:07;;;;;;;37.05;25.85;;;;;;;15.21;40.23;93834.31;4933590;28;20098;-84
2022/01/16 00:04:19;;;;;;;39.97;25.50;;;;;;;15.17;40.57;93836.50;4970817;28;20521;-84
2022/01/16 00:06:47;;;;;;;39.08;24.15;;;;;;;15.20;40.22;93847.19;4953696;28;20038;-84
2022/01/16 00:09:13;;;;;;;35.75;24.10;;;;;;;15.26;40.42;93839.84;4953020;28;20043;-84
2022/01/16 00:11:38;;;;;;;35.38;23.77;;;;;;;15.22;39.89;93860.34;4937827;28;20069;-84
2022/01/16 00:14:04;;;;;;;36.97;23.83;;;;;;;15.21;40.25;93867.75;4937000;28;20035;-85
2022/01/16 00:16:29;;;;;;;37.85;24.58;;;;;;;15.24;40.03;93830.66;4937300;28;20041;-85
2022/01/16 00:18:55;;;;;;;40.70;26.50;;;;;;;15.20;40.19;93792.72;4937723;28;20042;-85
2022/01/16 00:21:24;;;;;;;37.95;23.98;;;;;;;15.21;39.96;93812.53;4952539;28;20430;-85
2022/01/16 00:23:49;;;;;;;34.95;23.63;;;;;;;15.29;40.01;93827.25;4953596;28;20031;-84
2022/01/16 00:26:15;;;;;;;31.95;23.70;;;;;;;15.23;40.17;93808.13;4936649;28;20040;-85
2022/01/16 00:28:40;;;;;;;36.85;23.98;;;;;;;15.18;40.28;93808.78;4937832;28;20058;-85
2022/01/16 00:31:06;;;;;;;30.83;20.70;;;;;;;15.17;40.47;93826.38;4937013;28;20386;-85
2022/01/16 00:33:31;;;;;;;36.20;24.15;;;;;;;15.20;40.11;93809.06;4937310;28;20035;-84
2022/01/16 00:35:57;;;;;;;36.33;23.55;;;;;;;15.20;40.11;93808.31;4937542;28;20406;-84
2022/01/16 00:38:22;;;;;;;36.22;23.23;;;;;;;15.17;40.23;93784.78;4936530;28;20047;-84
2022/01/16 00:40:47;;;;;;;33.17;22.08;;;;;;;15.16;40.30;93784.03;4953131;28;20042;-84
2022/01/16 00:43:13;;;;;;;40.40;24.05;;;;;;;15.19;39.96;93787.75;4936377;28;20035;-84
2022/01/16 00:45:39;;;;;;;34.08;23.10;;;;;;;15.21;40.07;93807.09;4953354;28;20038;-84
2022/01/16 00:48:04;;;;;;;29.60;20.23;;;;;;;15.17;40.07;93787.50;4936914;28;20042;-84
2022/01/16 00:50:30;;;;;;;34.75;23.67;;;;;;;15.19;40.24;93804.09;4936939;28;20049;-85
2022/01/16 00:52:56;;;;;;;34.53;23.60;;;;;;;15.13;40.39;93792.44;4921182;28;20158;-84
2022/01/16 00:55:21;;;;;;;36.17;22.63;;;;;;;15.19;39.83;93782.31;4936871;28;20145;-84
2022/01/16 00:57:47;;;;;;;32.08;22.35;;;;;;;15.25;39.87;93774.94;4936514;28;20097;-84
2022/01/16 01:00:12;;;;;;;36.72;22.85;;;;;;;15.18;40.43;93792.47;4936568;28;20042;-84
2022/01/16 01:02:38;;;;;;;32.60;22.05;;;;;;;15.23;40.10;93778.16;4978905;28;20415;-84
2022/01/16 01:05:03;;;;;;;36.17;22.52;;;;;;;15.18;39.95;93794.44;4952515;28;20093;-84
2022/01/16 01:07:29;;;;;;;31.00;22.35;;;;;;;15.23;39.79;93829.16;4936487;28;20047;-85
2022/01/16 01:09:54;;;;;;;31.60;20.92;;;;;;;15.19;40.25;93831.34;4921176;28;20532;-84
2022/01/16 01:12:28;;;;;;;27.48;18.83;;;;;;;15.29;39.42;93840.84;4951999;28;20035;-84
2022/01/16 01:15:04;;;;;;;34.97;22.48;;;;;;;15.17;40.21;93833.78;4953862;28;20186;-85
2022/01/16 01:17:34;;;;;;;36.58;23.52;;;;;;;15.16;40.38;93837.72;4953932;28;20450;-84
2022/01/16 01:20:00;;;;;;;38.58;24.33;;;;;;;15.17;40.26;93810.03;4938351;28;20070;-85
2022/01/16 01:22:25;;;;;;;38.78;23.25;;;;;;;15.20;40.12;93740.25;4951547;28;20038;-85
2022/01/16 01:24:50;;;;;;;34.72;22.92;;;;;;;15.20;39.91;93751.13;4932693;28;20047;-84
2022/01/16 01:27:23;;;;;;;36.55;23.42;;;;;;;15.23;39.70;93750.16;4917014;28;20039;-84
2022/01/16 01:29:59;;;;;;;33.28;21.73;;;;;;;15.19;40.11;93738.75;4919413;29;20039;-84
2022/01/16 01:32:25;;;;;;;33.10;22.73;;;;;;;15.18;39.91;93737.25;4919704;28;20047;-84
2022/01/16 01:34:50;;;;;;;30.15;22.40;;;;;;;15.26;39.89;93749.22;4942014;28;20449;-84
2022/01/16 01:37:16;;;;;;;29.77;22.15;;;;;;;15.27;39.74;93762.34;4932697;28;20042;-85
2022/01/16 01:39:41;;;;;;;34.00;21.52;;;;;;;15.21;40.02;93768.97;4933354;28;20049;-85
2022/01/16 01:42:10;;;;;;;33.30;22.65;;;;;;;15.17;40.21;93790.22;4932642;28;20034;-84
2022/01/16 01:52:48;;;;;;;32.05;21.92;;;;;;;15.18;39.98;93789.72;4949297;28;20042;-84
2022/01/16 01:55:14;;;;;;;29.02;19.20;;;;;;;15.17;40.19;93779.31;4948491;28;20070;-84
2022/01/16 01:57:39;;;;;;;30.63;21.70;;;;;;;15.12;40.12;93769.91;4932613;28;20403;-84
2022/01/16 02:00:06;;;;;;;33.33;22.80;;;;;;;15.11;40.16;93771.13;4936830;28;20043;-84
2022/01/16 02:02:40;;;;;;;32.92;22.30;;;;;;;15.14;40.16;93785.75;4947474;28;20082;-84
2022/01/16 02:05:06;;;;;;;33.72;22.95;;;;;;;15.13;40.08;93793.19;4937812;28;20035;-84
2022/01/16 02:07:31;;;;;;;30.98;19.80;;;;;;;15.16;39.87;93805.81;4920183;29;20070;-84
2022/01/16 02:09:56;;;;;;;34.47;20.83;;;;;;;15.16;40.06;93794.16;4951710;28;20039;-84
2022/01/16 02:12:23;;;;;;;32.70;22.85;;;;;;;15.15;40.01;93809.78;4952065;28;20039;-85
2022/01/16 02:15:00;;;;;;;27.35;19.88;;;;;;;15.21;39.63;93804.38;4919992;29;20513;-84
2022/01/16 02:28:41;;;;;;;30.90;21.30;;;;;;;15.15;39.87;93784.53;4938608;28;20042;-84
2022/01/16 02:31:22;;;;;;;30.25;20.73;;;;;;;15.14;40.31;93783.78;4938192;28;20043;-84
2022/01/16 02:36:31;;;;;;;32.60;21.40;;;;;;;15.18;39.92;93769.94;4951712;28;20031;-84
2022/01/16 02:38:58;;;;;;;28.85;20.70;;;;;;;15.11;40.08;93771.13;4938129;28;20085;-84
2022/01/16 02:41:25;;;;;;;29.38;20.45;;;;;;;15.13;40.01;93762.47;4951396;28;20139;-84
2022/01/16 02:43:52;;;;;;;33.97;22.48;;;;;;;15.21;39.74;93763.53;4952124;28;20032;-85
2022/01/16 02:48:44;;;;;;;29.48;19.73;;;;;;;15.19;40.09;93771.41;4952070;28;20043;-84
2022/01/16 02:51:10;;;;;;;25.75;18.17;;;;;;;15.12;40.06;93771.88;4935412;28;20039;-84
2022/01/16 02:53:35;;;;;;;30.50;18.98;;;;;;;15.13;39.68;93773.38;4935928;28;20040;-84
2022/01/16 02:56:00;;;;;;;32.85;21.33;;;;;;;15.09;40.10;93757.22;4935752;28;20043;-85
2022/01/16 02:58:26;;;;;;;25.85;18.92;;;;;;;15.14;39.93;93769.41;4932245;28;20039;-84
2022/01/16 03:00:51;;;;;;;28.55;19.48;;;;;;;15.14;40.01;93763.97;4926138;28;20078;-84
2022/01/16 03:03:17;;;;;;;31.60;21.67;;;;;;;15.09;40.36;93766.16;4935180;28;20039;-84
2022/01/16 03:05:42;;;;;;;28.75;20.10;;;;;;;15.09;40.20;93765.41;4951660;28;20031;-84
2022/01/16 03:08:08;;;;;;;30.40;19.63;;;;;;;15.22;39.51;93765.00;4935127;28;20047;-84
2022/01/16 03:13:20;;;;;;;30.65;20.13;;;;;;;15.21;39.66;93761.53;4951501;28;20541;-84
2022/01/16 03:15:45;;;;;;;23.73;18.00;;;;;;;15.18;39.64;93761.75;4951560;28;20039;-84
2022/01/16 03:23:22;;;;;;;34.50;21.60;;;;;;;15.13;40.25;93748.84;4937755;28;20073;-84
2022/01/16 03:25:49;;;;;;;25.85;17.10;;;;;;;15.14;39.86;93744.91;4935344;28;20451;-84
2022/01/16 03:28:15;;;;;;;26.50;18.45;;;;;;;15.10;40.57;93747.84;4919406;28;20411;-85
2022/01/16 03:30:41;;;;;;;28.33;19.52;;;;;;;15.15;39.99;93749.13;4951215;28;20039;-84
2022/01/16 03:33:06;;;;;;;29.77;21.05;;;;;;;15.14;40.04;93753.81;4953126;28;20059;-84
2022/01/16 03:35:32;;;;;;;28.08;18.60;;;;;;;15.18;39.92;93745.41;4937761;28;20146;-84
2022/01/16 03:37:57;;;;;;;31.02;21.42;;;;;;;15.12;39.89;93741.91;4938794;28;20058;-84
2022/01/16 03:40:24;;;;;;;25.80;18.88;;;;;;;15.07;40.05;93746.81;4937865;28;20064;-84
2022/01/16 03:42:50;;;;;;;33.55;19.75;;;;;;;15.11;40.01;93735.72;4954612;28;20035;-84
2022/01/16 03:45:15;;;;;;;28.23;19.27;;;;;;;15.10;39.96;93720.63;4937564;28;20443;-84
2022/01/16 03:47:40;;;;;;;27.20;18.85;;;;;;;15.10;40.11;93723.34;4938523;28;20034;-84
2022/01/16 03:50:07;;;;;;;26.48;19.00;;;;;;;15.08;40.04;93721.09;4921477;28;20035;-84
2022/01/16 03:52:32;;;;;;;23.25;16.25;;;;;;;15.08;39.94;93723.81;4954043;28;20054;-84
2022/01/16 03:54:58;;;;;;;25.88;19.52;;;;;;;15.06;39.86;93726.25;4953612;28;20055;-84
2022/01/16 03:57:23;;;;;;;29.65;21.30;;;;;;;15.17;39.88;93730.31;4922036;28;20031;-84
2022/01/16 03:59:48;;;;;;;29.92;21.08;;;;;;;15.14;39.85;93731.28;4934887;29;20038;-84
2022/01/16 04:02:14;;;;;;;27.52;19.30;;;;;;;15.17;39.92;93730.31;4940573;28;20258;-84
2022/01/16 04:04:39;;;;;;;30.52;21.13;;;;;;;15.17;39.97;93713.97;4937713;28;20042;-85
2022/01/16 04:07:06;;;;;;;29.40;19.30;;;;;;;15.17;39.79;93722.13;4970356;28;20054;-84
2022/01/16 04:09:31;;;;;;;33.25;20.75;;;;;;;15.20;39.96;93716.47;4954172;28;20031;-84
2022/01/16 04:11:57;;;;;;;27.13;19.02;;;;;;;15.18;39.97;93712.75;4953890;28;20038;-84
2022/01/16 04:17:08;;;;;;;29.17;19.42;;;;;;;15.22;39.55;93713.28;4956051;28;20065;-84
2022/01/16 04:19:35;;;;;;;27.75;18.58;;;;;;;15.22;39.54;93721.44;4937880;28;20478;-84
2022/01/16 04:22:00;;;;;;;30.13;20.00;;;;;;;15.19;39.86;93717.72;4953197;28;20470;-84
2022/01/16 04:24:26;;;;;;;21.83;17.17;;;;;;;15.18;39.85;93708.03;4952841;28;20039;-85
2022/01/16 04:26:51;;;;;;;27.92;19.23;;;;;;;15.17;39.84;93712.00;4918377;29;20031;-84
2022/01/16 04:29:16;;;;;;;24.10;17.60;;;;;;;15.19;39.83;93714.97;4933968;28;20036;-84
2022/01/16 04:31:42;;;;;;;25.90;19.20;;;;;;;15.21;39.76;93712.53;4934210;28;20494;-84
2022/01/16 04:34:07;;;;;;;26.85;19.27;;;;;;;15.14;39.63;93704.06;4957385;28;20031;-84
2022/01/16 04:36:32;;;;;;;28.30;18.30;;;;;;;15.15;39.79;93702.84;4953170;28;20038;-84
2022/01/16 04:38:58;;;;;;;27.25;18.63;;;;;;;15.12;39.96;93684.72;4970730;28;20655;-84
2022/01/16 04:44:08;;;;;;;26.45;17.70;;;;;;;15.13;39.83;93689.69;4941818;28;20489;-84
2022/01/16 04:46:34;;;;;;;24.67;18.20;;;;;;;15.15;39.77;93687.25;4937595;28;20038;-84
2022/01/16 04:49:00;;;;;;;25.55;18.35;;;;;;;15.20;39.64;93691.22;4921301;28;20050;-84
2022/01/16 04:51:26;;;;;;;28.42;18.80;;;;;;;15.13;39.57;93695.16;4936742;28;20046;-85
2022/01/16 04:53:51;;;;;;;21.80;16.05;;;;;;;15.11;39.80;93697.59;4936989;28;20054;-85
2022/01/16 04:56:16;;;;;;;25.52;17.92;;;;;;;15.14;39.92;93707.53;4936087;28;20051;-84
2022/01/16 04:58:42;;;;;;;24.35;17.08;;;;;;;15.13;39.74;93711.47;4937113;28;20035;-84
2022/01/16 05:01:08;;;;;;;23.95;16.67;;;;;;;15.12;39.73;93707.25;4952171;28;20061;-84
2022/01/16 05:03:33;;;;;;;25.65;17.23;;;;;;;15.14;39.74;93704.06;4969730;28;20097;-84
2022/01/16 05:05:59;;;;;;;25.70;18.52;;;;;;;15.13;40.00;93711.47;4921121;28;20121;-84
2022/01/16 05:08:24;;;;;;;27.17;19.02;;;;;;;15.10;39.90;93707.00;4936794;28;20046;-84
2022/01/16 05:10:55;;;;;;;25.48;19.20;;;;;;;15.06;39.69;93699.03;4936364;28;20532;-84
2022/01/16 05:18:33;;;;;;;26.85;19.13;;;;;;;15.13;39.94;93703.31;4941689;28;20046;-85
2022/01/16 05:20:58;;;;;;;23.40;16.00;;;;;;;15.07;39.58;93697.81;4936510;28;20078;-84
2022/01/16 05:23:24;;;;;;;24.20;17.85;;;;;;;15.19;39.59;93695.91;4920127;28;20050;-84
2022/01/16 05:25:49;;;;;;;22.45;16.23;;;;;;;15.10;39.56;93693.38;4969731;28;20046;-85
2022/01/16 05:28:15;;;;;;;30.00;18.17;;;;;;;15.11;39.60;93689.44;4952808;28;20069;-84
2022/01/16 05:30:40;;;;;;;24.75;17.05;;;;;;;15.07;40.03;93691.63;4952404;28;20043;-84
2022/01/16 05:33:05;;;;;;;20.42;16.08;;;;;;;15.09;39.58;93689.16;4935554;28;20047;-84
2022/01/16 05:35:31;;;;;;;29.58;19.23;;;;;;;15.11;39.69;93699.56;4936401;28;20414;-85
2022/01/16 05:37:56;;;;;;;25.85;18.15;;;;;;;15.04;39.98;93701.50;4952563;28;20035;-85
2022/01/16 05:40:21;;;;;;;26.25;18.33;;;;;;;15.10;39.67;93707.00;4920408;28;20039;-84
2022/01/16 05:42:47;;;;;;;24.73;18.08;;;;;;;15.16;39.46;93699.59;4936090;28;20531;-84
2022/01/16 05:45:12;;;;;;;26.05;18.50;;;;;;;15.12;39.73;93701.81;4935446;28;20023;-84
2022/01/16 05:47:38;;;;;;;24.70;18.48;;;;;;;15.05;39.91;93705.72;4936342;28;20042;-84
2022/01/16 05:50:04;;;;;;;26.25;17.75;;;;;;;15.06;39.86;93707.22;4951647;28;20042;-84
2022/01/16 05:52:29;;;;;;;24.10;17.20;;;;;;;15.01;40.06;93707.91;4920306;28;20142;-84
2022/01/16 05:54:55;;;;;;;23.70;16.05;;;;;;;15.08;39.64;93704.75;4935986;28;20046;-84
2022/01/16 05:57:20;;;;;;;25.23;17.27;;;;;;;15.14;39.53;93723.13;4935349;28;20509;-85
2022/01/16 05:59:46;;;;;;;28.23;18.40;;;;;;;15.09;39.88;93719.88;4952048;28;20102;-84
2022/01/16 06:02:11;;;;;;;22.33;16.58;;;;;;;15.03;40.06;93712.88;4981432;28;20031;-84
2022/01/16 06:04:36;;;;;;;23.67;16.70;;;;;;;15.07;39.51;93713.41;4969333;28;20406;-84
2022/01/16 06:07:02;;;;;;;23.38;16.58;;;;;;;15.07;39.98;93716.88;4961030;28;20043;-84
2022/01/16 06:09:27;;;;;;;24.95;18.20;;;;;;;15.06;39.88;93722.78;4951368;28;20045;-84
2022/01/16 06:11:54;;;;;;;25.23;17.15;;;;;;;15.13;39.54;93711.47;4950829;28;20098;-84
2022/01/16 06:14:21;;;;;;;21.50;15.52;;;;;;;15.11;39.74;93713.94;4966347;28;20041;-85
2022/01/16 06:16:47;;;;;;;24.75;16.15;;;;;;;15.05;39.53;93713.13;4936157;28;20046;-84
2022/01/16 06:19:12;;;;;;;22.20;16.33;;;;;;;15.12;39.33;93731.03;4967708;28;20035;-84
2022/01/16 06:21:38;;;;;;;26.48;17.50;;;;;;;15.11;39.74;93734.97;4951965;28;20058;-84
2022/01/16 06:24:03;;;;;;;24.83;17.50;;;;;;;15.12;39.68;93733.75;4967796;28;20072;-84
2022/01/16 06:26:29;;;;;;;23.58;16.60;;;;;;;15.09;39.53;93728.03;4928451;28;20491;-84
2022/01/16 06:28:55;;;;;;;21.45;16.30;;;;;;;15.16;39.56;93728.81;4951999;28;20074;-84
2022/01/16 06:31:20;;;;;;;25.02;17.27;;;;;;;15.12;39.65;93734.50;4935596;28;20031;-84
2022/01/16 06:33:46;;;;;;;20.55;15.40;;;;;;;15.08;39.62;93721.09;4916619;29;20517;-84
2022/01/16 06:36:11;;;;;;;21.67;15.70;;;;;;;15.07;39.95;93727.00;4916227;28;20755;-84
2022/01/16 06:38:36;;;;;;;24.45;16.55;;;;;;;15.07;39.84;93732.47;4950105;28;20054;-84
2022/01/16 06:41:02;;;;;;;24.17;16.52;;;;;;;15.06;39.68;93723.53;4947917;28;20039;-85
2022/01/16 06:43:27;;;;;;;26.55;17.65;;;;;;;15.07;39.77;93733.22;4932619;28;20090;-84
2022/01/16 06:45:54;;;;;;;24.80;17.48;;;;;;;15.19;39.34;93717.72;4935743;29;20063;-84
2022/01/16 06:48:19;;;;;;;24.92;17.85;;;;;;;15.17;39.66;93731.06;4935818;28;20043;-84
2022/01/16 06:50:45;;;;;;;21.08;15.68;;;;;;;15.11;39.53;93718.63;4935569;29;20752;-84
2022/01/16 06:53:10;;;;;;;27.23;18.63;;;;;;;15.11;39.59;93719.38;4935606;28;20032;-84
2022/01/16 06:55:36;;;;;;;23.52;16.67;;;;;;;15.13;39.49;93719.66;4920295;29;20095;-84
2022/01/16 06:58:01;;;;;;;22.65;15.77;;;;;;;15.17;39.15;93711.25;4935786;29;20426;-84
2022/01/16 07:00:26;;;;;;;22.85;15.27;;;;;;;15.09;39.36;93708.97;4919694;28;20047;-85
2022/01/16 07:02:52;;;;;;;22.25;16.52;;;;;;;15.09;40.01;93711.69;4959351;28;20042;-85
2022/01/16 07:05:18;;;;;;;21.23;15.73;;;;;;;15.13;39.72;93714.22;4919486;28;20399;-84
2022/01/16 07:07:44;;;;;;;21.13;16.23;;;;;;;15.13;39.51;93706.03;4936025;28;20120;-84
2022/01/16 07:10:09;;;;;;;24.10;18.25;;;;;;;15.13;39.60;93708.75;4951158;28;20063;-85
2022/01/16 07:12:34;;;;;;;22.83;15.43;;;;;;;15.09;39.67;93708.97;4935222;28;20840;-85
2022/01/16 07:15:00;;;;;;;19.70;15.10;;;;;;;15.11;39.92;93722.09;4951409;28;20050;-84
2022/01/16 07:17:25;;;;;;;21.38;16.95;;;;;;;15.19;39.50;93717.72;4935322;28;20032;-85
2022/01/16 07:19:51;;;;;;;22.70;15.90;;;;;;;15.15;39.70;93721.91;4935939;28;20507;-84
2022/01/16 07:22:18;;;;;;;26.98;17.10;;;;;;;15.11;39.35;93719.38;4950961;28;20405;-84
2022/01/16 07:24:44;;;;;;;23.58;16.80;;;;;;;15.09;39.49;93721.84;4920342;29;20109;-85
2022/01/16 07:27:09;;;;;;;23.38;16.98;;;;;;;15.15;39.24;93724.63;4934953;28;20422;-84
2022/01/16 07:29:34;;;;;;;23.27;16.38;;;;;;;15.13;39.68;93725.09;4919496;29;20282;-84
2022/01/16 07:32:00;;;;;;;23.85;16.40;;;;;;;15.16;39.79;93728.81;4919331;29;20385;-84
2022/01/16 07:34:25;;;;;;;21.83;16.23;;;;;;;15.16;39.31;93731.53;4950524;28;20458;-85
2022/01/16 07:36:51;;;;;;;24.60;17.35;;;;;;;15.17;39.76;93739.22;4952174;28;20066;-85
2022/01/16 07:39:16;;;;;;;20.23;15.27;;;;;;;15.16;39.44;93743.16;4934856;28;20039;-85
2022/01/16 07:41:41;;;;;;;24.42;16.83;;;;;;;15.13;39.42;93730.53;4919453;29;20035;-84
2022/01/16 07:44:07;;;;;;;22.88;16.15;;;;;;;15.12;39.57;93731.78;4951841;28;20038;-84
2022/01/16 07:46:33;;;;;;;22.83;16.45;;;;;;;15.14;39.51;93734.00;4935246;28;20348;-84
2022/01/16 07:48:59;;;;;;;23.67;15.13;;;;;;;15.14;39.36;93732.03;4952299;28;20518;-84
2022/01/16 07:51:25;;;;;;;18.42;14.25;;;;;;;15.14;39.34;93729.31;4934409;28;20131;-84
2022/01/16 07:53:52;;;;;;;20.08;14.00;;;;;;;15.15;39.43;93727.34;4935197;29;20042;-84
2022/01/16 07:56:17;;;;;;;19.95;15.57;;;;;;;15.09;39.60;93730.00;4949667;28;20050;-85
2022/01/16 07:58:43;;;;;;;24.58;17.00;;;;;;;15.12;39.88;93729.06;4931560;28;20043;-84
2022/01/16 08:01:08;;;;;;;20.70;15.40;;;;;;;15.07;39.92;93733.22;4929682;28;20043;-84
2022/01/16 08:03:34;;;;;;;20.77;14.45;;;;;;;15.06;39.68;93736.41;4947483;28;20044;-85
2022/01/16 08:05:59;;;;;;;19.63;14.38;;;;;;;15.12;39.68;93731.03;4915961;29;20087;-84
2022/01/16 08:08:25;;;;;;;20.85;15.00;;;;;;;15.16;39.38;93736.97;4913485;29;20048;-84
2022/01/16 08:10:50;;;;;;;23.65;15.52;;;;;;;15.12;39.74;93734.50;4883026;29;20075;-84
2022/01/16 08:13:15;;;;;;;22.50;15.25;;;;;;;15.12;39.63;93736.47;4898006;29;20103;-84
2022/01/16 08:15:43;;;;;;;24.70;17.00;;;;;;;15.14;39.38;93732.03;4898736;29;20474;-84
2022/01/16 08:18:09;;;;;;;24.23;16.90;;;;;;;15.16;39.46;93726.09;4913972;29;20047;-84
2022/01/16 08:20:34;;;;;;;20.10;15.98;;;;;;;15.12;39.65;93725.56;4898576;29;20047;-84
2022/01/16 08:23:00;;;;;;;24.48;16.08;;;;;;;15.17;39.60;93717.44;4898111;29;20385;-85
2022/01/16 08:25:25;;;;;;;21.67;16.67;;;;;;;15.20;39.25;93719.19;4897663;29;20049;-85
2022/01/16 08:27:51;;;;;;;20.52;17.15;;;;;;;15.18;39.56;93718.19;4914270;29;20467;-84
2022/01/16 08:30:16;;;;;;;18.52;14.70;;;;;;;15.15;39.83;93717.19;4910484;28;20043;-85
2022/01/16 08:32:43;;;;;;;22.60;16.55;;;;;;;15.25;39.11;93712.31;4933023;29;20043;-85
2022/01/16 08:35:09;;;;;;;21.75;15.30;;;;;;;15.24;39.50;93717.00;4901596;29;20055;-84
2022/01/16 08:37:35;;;;;;;19.38;14.35;;;;;;;15.27;39.18;93707.88;4898016;29;20748;-84
2022/01/16 08:40:00;;;;;;;21.17;16.00;;;;;;;15.24;39.22;93710.81;4931430;29;20036;-85
2022/01/16 08:42:25;;;;;;;22.48;15.23;;;;;;;15.26;39.50;93713.81;4915075;29;20427;-85
2022/01/16 08:44:51;;;;;;;22.05;15.05;;;;;;;15.32;39.32;93701.75;4930110;29;20051;-84
2022/01/16 08:47:16;;;;;;;24.02;16.15;;;;;;;15.34;39.08;93706.72;4930347;29;20620;-84
2022/01/16 08:49:42;;;;;;;20.35;14.85;;;;;;;15.33;38.98;93705.22;4930710;29;20044;-85
2022/01/16 08:52:07;;;;;;;19.63;14.43;;;;;;;15.32;39.07;93706.44;4930551;29;20040;-85
2022/01/16 08:54:33;;;;;;;23.05;16.90;;;;;;;15.33;39.02;93708.69;4915056;29;20031;-85
2022/01/16 08:57:00;;;;;;;23.58;15.02;;;;;;;15.33;39.28;93714.13;4914860;29;20044;-85
2022/01/16 08:59:25;;;;;;;23.27;15.55;;;;;;;15.41;38.78;93701.53;4913889;29;20099;-85
2022/01/16 09:01:51;;;;;;;19.88;14.43;;;;;;;15.39;39.07;93712.19;4946469;28;20489;-85
2022/01/16 09:04:16;;;;;;;19.13;14.55;;;;;;;15.36;38.96;93713.16;4929889;29;20039;-85
2022/01/16 09:06:41;;;;;;;22.50;15.40;;;;;;;15.34;39.21;93703.97;4930532;29;20036;-85
2022/01/16 09:09:07;;;;;;;18.88;13.95;;;;;;;15.42;39.05;93724.09;4913745;29;20040;-84
2022/01/16 09:11:32;;;;;;;18.95;15.02;;;;;;;15.45;39.02;93725.84;4930587;29;20381;-85
2022/01/16 09:13:58;;;;;;;20.48;15.65;;;;;;;15.41;39.04;93728.03;4929864;29;20048;-84
2022/01/16 09:16:24;;;;;;;22.40;13.93;;;;;;;15.46;39.02;93721.91;4914432;29;20048;-85
2022/01/16 09:18:49;;;;;;;19.88;14.82;;;;;;;15.41;39.20;93720.63;4931569;29;20407;-85
2022/01/16 09:21:16;;;;;;;18.58;14.15;;;;;;;15.39;38.96;93728.53;4914245;29;20063;-85
2022/01/16 09:23:44;;;;;;;23.70;15.43;;;;;;;15.41;38.88;93731.50;4930167;29;20530;-85
2022/01/16 09:26:09;;;;;;;19.00;14.82;;;;;;;15.34;39.27;93726.53;4929656;28;20052;-84
2022/01/16 09:28:34;;;;;;;19.90;14.65;;;;;;;15.43;38.71;93736.47;4929933;29;20087;-84
2022/01/16 09:31:00;;;;;;;19.30;14.20;;;;;;;15.42;38.80;93740.44;4930180;29;20451;-85
2022/01/16 09:33:25;;;;;;;18.38;14.10;;;;;;;15.42;39.06;93738.47;4933936;28;20051;-85
2022/01/16 09:35:50;;;;;;;21.15;15.98;;;;;;;15.37;38.97;93720.09;4933002;29;20043;-84
2022/01/16 09:38:17;;;;;;;22.55;15.57;;;;;;;15.36;38.94;93732.22;4932652;28;20035;-85
2022/01/16 09:40:44;;;;;;;20.65;15.13;;;;;;;15.41;38.92;93728.78;4933386;28;20046;-85
2022/01/16 09:43:09;;;;;;;21.02;15.10;;;;;;;15.36;39.02;93734.22;4933146;28;20046;-85
2022/01/16 09:45:34;;;;;;;20.25;14.57;;;;;;;15.38;39.24;93732.47;4932854;28;20086;-85
2022/01/16 09:48:01;;;;;;;21.15;15.45;;;;;;;15.44;38.83;93746.16;4933567;28;20043;-85
2022/01/16 09:50:27;;;;;;;19.63;13.77;;;;;;;15.44;38.71;93744.16;4948529;28;20525;-85
2022/01/16 09:52:52;;;;;;;23.90;15.70;;;;;;;15.40;38.93;93748.34;4933282;28;20035;-84
2022/01/16 09:55:18;;;;;;;20.92;15.23;;;;;;;15.42;38.93;93738.47;4948223;28;20044;-84
2022/01/16 09:57:44;;;;;;;17.80;14.50;;;;;;;15.36;39.16;93721.34;4913857;29;20050;-84
2022/01/16 10:00:12;;;;;;;22.08;13.75;;;;;;;15.30;39.36;93730.69;4904377;28;20039;-84
2022/01/16 10:02:37;;;;;;;20.17;15.25;;;;;;;15.35;39.27;93721.81;4949328;28;20050;-85
2022/01/16 10:05:28;;;;;;;20.00;14.60;;;;;;;15.38;38.93;93729.75;4916081;28;20039;-84
2022/01/16 10:07:54;;;;;;;25.90;16.77;;;;;;;15.32;39.15;93733.69;4947056;28;20046;-84
2022/01/16 10:10:20;;;;;;;16.70;13.75;;;;;;;15.32;39.16;93722.78;4931318;28;20032;-85
2022/01/16 10:12:51;;;;;;;21.40;15.10;;;;;;;15.28;39.24;93709.38;4931835;29;20586;-84
2022/01/16 10:15:20;;;;;;;17.58;14.10;;;;;;;15.29;39.36;93721.78;4946843;28;20048;-85
2022/01/16 10:17:47;;;;;;;20.55;14.07;;;;;;;15.28;39.16;93714.06;4932877;29;20130;-85
2022/01/16 10:20:16;;;;;;;21.30;15.38;;;;;;;15.25;39.34;93717.75;4918489;28;20262;-84
2022/01/16 10:22:43;;;;;;;19.50;13.50;;;;;;;15.34;39.28;93715.63;4937536;28;20039;-85
2022/01/16 10:25:08;;;;;;;18.45;13.82;;;;;;;15.31;39.45;93718.56;4951744;28;20078;-85
2022/01/16 10:27:35;;;;;;;20.45;14.43;;;;;;;15.30;39.32;93723.25;4920932;29;20067;-84
2022/01/16 10:30:02;;;;;;;19.52;12.93;;;;;;;15.31;39.51;93711.13;4936693;28;20486;-84
2022/01/16 10:32:31;;;;;;;19.83;14.55;;;;;;;15.33;39.29;93716.09;4953473;28;20312;-85
2022/01/16 10:35:07;;;;;;;17.73;13.65;;;;;;;15.37;39.02;93708.47;4932828;28;20039;-84
2022/01/16 10:37:32;;;;;;;19.70;14.00;;;;;;;15.32;39.21;93703.72;4932715;28;20067;-84
2022/01/16 10:40:11;;;;;;;21.23;14.55;;;;;;;15.32;39.09;93711.88;4933628;28;20403;-84
2022/01/16 10:42:39;;;;;;;19.05;14.07;;;;;;;15.25;39.44;93712.31;4917463;29;20131;-84
2022/01/16 10:45:11;;;;;;;18.58;14.57;;;;;;;15.32;39.14;93725.50;4916543;28;20032;-84
2022/01/16 10:47:44;;;;;;;20.45;13.30;;;;;;;15.30;39.22;93723.25;4934230;28;20048;-86
2022/01/16 10:50:16;;;;;;;18.85;13.52;;;;;;;15.36;38.97;93726.03;4900973;29;20547;-84
2022/01/16 10:52:51;;;;;;;19.77;14.70;;;;;;;15.29;39.15;93735.38;4917603;29;20050;-84
2022/01/16 10:55:17;;;;;;;17.95;14.38;;;;;;;15.27;39.03;93729.66;4934073;28;20040;-85
2022/01/16 10:57:43;;;;;;;22.15;14.25;;;;;;;15.32;39.24;93731.69;4924984;29;20391;-84
2022/01/16 11:00:15;;;;;;;17.77;13.48;;;;;;;15.33;39.08;93725.03;4935553;28;20075;-84
2022/01/16 11:02:42;;;;;;;22.40;15.13;;;;;;;15.33;38.91;93730.47;4951820;28;20047;-84
2022/01/16 11:05:13;;;;;;;19.85;13.35;;;;;;;15.27;39.31;93731.66;4935123;28;20039;-85
2022/01/16 11:07:39;;;;;;;18.55;13.48;;;;;;;15.28;39.19;93733.13;4936229;28;20043;-84
2022/01/16 11:10:24;;;;;;;17.27;12.98;;;;;;;15.26;39.21;93732.88;4935288;28;20402;-84
2022/01/16 11:12:49;;;;;;;17.75;13.70;;;;;;;15.31;38.99;93732.19;4951467;28;20091;-84
2022/01/16 11:15:16;;;;;;;23.13;14.68;;;;;;;15.27;39.31;93728.91;4934932;28;20036;-84
2022/01/16 11:17:41;;;;;;;18.00;13.00;;;;;;;15.28;39.33;93717.53;4935831;28;20043;-85
2022/01/16 11:20:08;;;;;;;19.38;14.82;;;;;;;15.26;39.32;93724.69;4951083;28;20046;-84
2022/01/16 11:22:45;;;;;;;18.48;13.73;;;;;;;15.34;39.22;93725.78;4919402;29;20055;-84
2022/01/16 11:25:23;;;;;;;18.33;13.77;;;;;;;15.27;39.26;93724.22;4951255;28;20069;-84
2022/01/16 11:27:48;;;;;;;19.42;13.60;;;;;;;15.30;39.05;93727.97;4922787;29;20048;-84
2022/01/16 11:30:14;;;;;;;19.35;13.55;;;;;;;15.26;39.41;93736.34;4919173;28;20510;-84
2022/01/16 11:32:39;;;;;;;18.55;13.77;;;;;;;15.30;39.27;93741.56;4919570;29;20038;-85
2022/01/16 11:35:05;;;;;;;17.02;12.85;;;;;;;15.31;39.33;93732.19;4915715;28;20036;-85
2022/01/16 11:37:31;;;;;;;20.70;12.45;;;;;;;15.28;39.32;93733.13;4900126;29;20491;-84
2022/01/16 11:40:18;;;;;;;14.95;12.57;;;;;;;15.28;39.20;93738.59;4916991;29;20044;-84
2022/01/16 11:42:43;;;;;;;18.02;13.60;;;;;;;15.31;39.28;93729.47;4932938;28;20067;-84
2022/01/16 11:45:09;;;;;;;21.08;15.15;;;;;;;15.29;39.22;93738.09;4915568;28;20530;-84
2022/01/16 11:47:35;;;;;;;18.63;13.00;;;;;;;15.44;39.11;93738.72;4916261;29;20047;-84
2022/01/16 11:50:07;;;;;;;16.95;13.20;;;;;;;15.29;39.02;93732.66;4916320;29;20035;-85
2022/01/16 11:52:37;;;;;;;17.23;13.00;;;;;;;15.36;38.86;93734.97;4931445;28;20047;-84
2022/01/16 11:55:07;;;;;;;22.43;14.70;;;;;;;15.32;38.91;93745.31;4915701;28;20396;-84
2022/01/16 11:57:33;;;;;;;16.00;12.00;;;;;;;15.34;38.97;93736.66;4922951;29;20039;-84